Portada
METAR-TAF:

METAR-TAF

Aeropuertos :

Aeropuerto de Sherbrooke

Sherbrooke, Quebec, Canadá

latitud: 45-24N, longitud: 071-53W, altitud: 170 m

Observación

El informe se hizo hace 32 minutos, a las 00:08 UTC
Viento calma
Temperatura -5°C
Humedad 93%
Presión 1003 hPa
Visibilidad: 2.8 km
Cielo cubierto a una altura de 1700 ft
poca nieve

METAR: CYSC 170008Z AUTO 00000KT 1 3/4SM -SN OVC017 M05/M06 A2961 RMK VIS VRB 1 1/4-3 SLP042

Hora: 19:40 (00:40 UTC)

Pronóstico

El informe se hizo hace 1 hora y 2 minutos, a las 23:38 UTC
Pronóstico válido del 17 a las 00 UTC al 17 a las 03 UTC
Viento 3 kt con dirección variable
Visibilidad: 9.7 km
Cielo cubierto a una altura de 2500 ft
poca nieve
Temporalmente
del 17 a las 00 UTC al 17 a las 03 UTC
poca nieve

TAF: CYSC 162338Z 1700/1703 VRB03KT 6SM -SN OVC025 TEMPO 1700/1703 11/2SM -SN RMK FCST BASED ON AUTO OBS. NXT FCST WILL BE ISSUED AT 171045Z

Observaciones y pronósticos meteorológicos de más de 4000 aeropuertos (mensajes METAR y TAF).

Los puntos amarillos y rojos representan las estaciones disponibles.

Ponga el ratón en el punto deseado para ver el nombre de la estación.

Haga clic para ver las observaciones y los pronósticos meteorológicos.

Para cambiar el mapa : haga clic en los botones verdes con una cruz de color negro para hacer un zoom, en el botón verde con un guión para alejar o en las flechas verdes para mapas adyacentes.


METAR-TAF: